sensor_id;sensor_type;location;lat;lon;timestamp;P1;durP1;ratioP1;P2;durP2;ratioP2
21681;SDS011;11002;48.256;10.084;2023-02-22T00:00:11;10.07;;;6.72;;
21681;SDS011;11002;48.256;10.084;2023-02-22T00:02:47;10.00;;;6.75;;
21681;SDS011;11002;48.256;10.084;2023-02-22T00:05:16;10.98;;;6.55;;
21681;SDS011;11002;48.256;10.084;2023-02-22T00:07:47;11.63;;;6.65;;
21681;SDS011;11002;48.256;10.084;2023-02-22T00:10:15;10.00;;;6.93;;
21681;SDS011;11002;48.256;10.084;2023-02-22T00:12:45;14.65;;;7.15;;
21681;SDS011;11002;48.256;10.084;2023-02-22T00:15:14;13.68;;;7.20;;
21681;SDS011;11002;48.256;10.084;2023-02-22T00:17:42;14.43;;;7.88;;
21681;SDS011;11002;48.256;10.084;2023-02-22T00:20:10;10.43;;;6.85;;
21681;SDS011;11002;48.256;10.084;2023-02-22T00:22:42;15.43;;;7.57;;
21681;SDS011;11002;48.256;10.084;2023-02-22T00:25:13;11.38;;;6.55;;
21681;SDS011;11002;48.256;10.084;2023-02-22T00:27:43;15.05;;;7.70;;
21681;SDS011;11002;48.256;10.084;2023-02-22T00:30:13;15.23;;;7.63;;
21681;SDS011;11002;48.256;10.084;2023-02-22T00:32:43;14.48;;;7.57;;
21681;SDS011;11002;48.256;10.084;2023-02-22T00:35:11;11.52;;;7.57;;
21681;SDS011;11002;48.256;10.084;2023-02-22T00:37:39;10.40;;;6.97;;
21681;SDS011;11002;48.256;10.084;2023-02-22T00:40:07;14.55;;;7.55;;
21681;SDS011;11002;48.256;10.084;2023-02-22T00:42:37;10.43;;;6.80;;
21681;SDS011;11002;48.256;10.084;2023-02-22T00:45:04;12.88;;;7.40;;
21681;SDS011;11002;48.256;10.084;2023-02-22T00:47:34;15.13;;;7.30;;
21681;SDS011;11002;48.256;10.084;2023-02-22T00:50:01;10.98;;;6.63;;
21681;SDS011;11002;48.256;10.084;2023-02-22T00:52:29;10.48;;;7.78;;
21681;SDS011;11002;48.256;10.084;2023-02-22T00:54:56;12.13;;;6.93;;
21681;SDS011;11002;48.256;10.084;2023-02-22T00:57:24;11.45;;;6.15;;
21681;SDS011;11002;48.256;10.084;2023-02-22T00:59:53;8.13;;;5.70;;
21681;SDS011;11002;48.256;10.084;2023-02-22T01:02:22;10.95;;;5.93;;
21681;SDS011;11002;48.256;10.084;2023-02-22T01:04:49;12.80;;;5.82;;
21681;SDS011;11002;48.256;10.084;2023-02-22T01:07:16;10.27;;;5.40;;
21681;SDS011;11002;48.256;10.084;2023-02-22T01:09:45;8.43;;;5.88;;
21681;SDS011;11002;48.256;10.084;2023-02-22T01:12:12;10.63;;;5.20;;
21681;SDS011;11002;48.256;10.084;2023-02-22T01:14:40;9.30;;;5.50;;
21681;SDS011;11002;48.256;10.084;2023-02-22T01:17:09;11.10;;;6.35;;
21681;SDS011;11002;48.256;10.084;2023-02-22T01:19:36;10.00;;;6.28;;
21681;SDS011;11002;48.256;10.084;2023-02-22T01:22:06;8.82;;;5.57;;
21681;SDS011;11002;48.256;10.084;2023-02-22T01:24:34;10.35;;;6.38;;
21681;SDS011;11002;48.256;10.084;2023-02-22T01:27:01;9.98;;;5.93;;
21681;SDS011;11002;48.256;10.084;2023-02-22T01:29:30;9.35;;;5.47;;
21681;SDS011;11002;48.256;10.084;2023-02-22T01:32:00;8.00;;;5.78;;
21681;SDS011;11002;48.256;10.084;2023-02-22T01:34:29;12.23;;;5.68;;
21681;SDS011;11002;48.256;10.084;2023-02-22T01:36:57;9.80;;;5.85;;
21681;SDS011;11002;48.256;10.084;2023-02-22T01:39:26;6.43;;;5.00;;
21681;SDS011;11002;48.256;10.084;2023-02-22T01:41:53;9.60;;;5.38;;
21681;SDS011;11002;48.256;10.084;2023-02-22T01:44:25;7.55;;;4.72;;
21681;SDS011;11002;48.256;10.084;2023-02-22T01:46:58;7.28;;;5.35;;
21681;SDS011;11002;48.256;10.084;2023-02-22T01:49:31;10.50;;;5.60;;
21681;SDS011;11002;48.256;10.084;2023-02-22T01:52:03;9.23;;;5.43;;
21681;SDS011;11002;48.256;10.084;2023-02-22T01:54:34;10.30;;;5.47;;
21681;SDS011;11002;48.256;10.084;2023-02-22T01:57:05;7.15;;;4.88;;
21681;SDS011;11002;48.256;10.084;2023-02-22T01:59:39;10.05;;;5.18;;
21681;SDS011;11002;48.256;10.084;2023-02-22T02:02:10;7.18;;;4.93;;
21681;SDS011;11002;48.256;10.084;2023-02-22T02:04:40;9.27;;;5.72;;
21681;SDS011;11002;48.256;10.084;2023-02-22T02:07:10;9.90;;;5.72;;
21681;SDS011;11002;48.256;10.084;2023-02-22T02:09:42;9.15;;;4.80;;
21681;SDS011;11002;48.256;10.084;2023-02-22T02:14:42;7.75;;;5.30;;
21681;SDS011;11002;48.256;10.084;2023-02-22T02:17:10;10.57;;;4.78;;
21681;SDS011;11002;48.256;10.084;2023-02-22T02:19:44;10.80;;;5.50;;
21681;SDS011;11002;48.256;10.084;2023-02-22T02:22:27;8.25;;;5.60;;
21681;SDS011;11002;48.256;10.084;2023-02-22T02:25:14;6.32;;;4.65;;
21681;SDS011;11002;48.256;10.084;2023-02-22T02:31:17;7.95;;;4.25;;
21681;SDS011;11002;48.256;10.084;2023-02-22T02:34:01;8.55;;;5.38;;
21681;SDS011;11002;48.256;10.084;2023-02-22T02:36:31;9.32;;;4.97;;
21681;SDS011;11002;48.256;10.084;2023-02-22T02:39:05;11.38;;;5.63;;
21681;SDS011;11002;48.256;10.084;2023-02-22T02:41:40;8.52;;;5.32;;
21681;SDS011;11002;48.256;10.084;2023-02-22T02:44:10;8.68;;;4.82;;
21681;SDS011;11002;48.256;10.084;2023-02-22T02:46:43;8.23;;;5.30;;
21681;SDS011;11002;48.256;10.084;2023-02-22T02:49:18;8.97;;;5.67;;
21681;SDS011;11002;48.256;10.084;2023-02-22T02:51:51;9.40;;;5.53;;
21681;SDS011;11002;48.256;10.084;2023-02-22T02:54:20;9.20;;;5.90;;
21681;SDS011;11002;48.256;10.084;2023-02-22T02:56:51;10.52;;;6.85;;
21681;SDS011;11002;48.256;10.084;2023-02-22T02:59:23;10.77;;;6.38;;
21681;SDS011;11002;48.256;10.084;2023-02-22T03:01:54;13.70;;;7.30;;
21681;SDS011;11002;48.256;10.084;2023-02-22T03:04:39;16.17;;;6.47;;
21681;SDS011;11002;48.256;10.084;2023-02-22T03:07:27;12.80;;;7.32;;
21681;SDS011;11002;48.256;10.084;2023-02-22T03:10:16;12.60;;;7.03;;
21681;SDS011;11002;48.256;10.084;2023-02-22T03:12:56;14.65;;;6.82;;
21681;SDS011;11002;48.256;10.084;2023-02-22T03:15:31;16.33;;;6.53;;
21681;SDS011;11002;48.256;10.084;2023-02-22T03:18:08;10.93;;;6.75;;
21681;SDS011;11002;48.256;10.084;2023-02-22T03:20:45;12.35;;;6.80;;
21681;SDS011;11002;48.256;10.084;2023-02-22T03:23:20;12.45;;;6.03;;
21681;SDS011;11002;48.256;10.084;2023-02-22T03:25:53;10.38;;;5.68;;
21681;SDS011;11002;48.256;10.084;2023-02-22T03:28:25;13.52;;;5.20;;
21681;SDS011;11002;48.256;10.084;2023-02-22T03:30:54;9.77;;;5.63;;
21681;SDS011;11002;48.256;10.084;2023-02-22T03:33:27;9.88;;;5.35;;
21681;SDS011;11002;48.256;10.084;2023-02-22T03:36:04;9.23;;;5.32;;
21681;SDS011;11002;48.256;10.084;2023-02-22T03:38:38;7.72;;;5.00;;
21681;SDS011;11002;48.256;10.084;2023-02-22T03:41:10;8.23;;;5.13;;
21681;SDS011;11002;48.256;10.084;2023-02-22T03:43:43;10.60;;;5.10;;
21681;SDS011;11002;48.256;10.084;2023-02-22T03:46:14;10.23;;;4.90;;
21681;SDS011;11002;48.256;10.084;2023-02-22T03:48:45;7.35;;;4.80;;
21681;SDS011;11002;48.256;10.084;2023-02-22T03:51:20;6.85;;;4.90;;
21681;SDS011;11002;48.256;10.084;2023-02-22T03:53:53;6.07;;;4.07;;
21681;SDS011;11002;48.256;10.084;2023-02-22T03:56:27;6.65;;;4.68;;
21681;SDS011;11002;48.256;10.084;2023-02-22T03:59:01;7.05;;;4.00;;
21681;SDS011;11002;48.256;10.084;2023-02-22T04:01:31;8.82;;;4.57;;
21681;SDS011;11002;48.256;10.084;2023-02-22T04:03:59;5.30;;;3.90;;
21681;SDS011;11002;48.256;10.084;2023-02-22T04:06:28;11.00;;;5.78;;
21681;SDS011;11002;48.256;10.084;2023-02-22T04:08:57;10.02;;;5.10;;
21681;SDS011;11002;48.256;10.084;2023-02-22T04:11:24;7.10;;;5.10;;
21681;SDS011;11002;48.256;10.084;2023-02-22T04:13:52;6.82;;;4.90;;
21681;SDS011;11002;48.256;10.084;2023-02-22T04:16:20;12.98;;;4.22;;
21681;SDS011;11002;48.256;10.084;2023-02-22T04:18:49;10.70;;;5.25;;
21681;SDS011;11002;48.256;10.084;2023-02-22T04:21:18;10.02;;;5.60;;
21681;SDS011;11002;48.256;10.084;2023-02-22T04:23:49;7.00;;;4.72;;
21681;SDS011;11002;48.256;10.084;2023-02-22T04:26:17;7.88;;;5.22;;
21681;SDS011;11002;48.256;10.084;2023-02-22T04:28:50;7.63;;;4.07;;
21681;SDS011;11002;48.256;10.084;2023-02-22T04:31:21;11.23;;;4.93;;
21681;SDS011;11002;48.256;10.084;2023-02-22T04:33:50;8.30;;;5.18;;
21681;SDS011;11002;48.256;10.084;2023-02-22T04:36:22;10.98;;;4.50;;
21681;SDS011;11002;48.256;10.084;2023-02-22T04:38:53;10.85;;;6.18;;
21681;SDS011;11002;48.256;10.084;2023-02-22T04:41:20;7.20;;;4.88;;
21681;SDS011;11002;48.256;10.084;2023-02-22T04:43:49;7.03;;;4.38;;
21681;SDS011;11002;48.256;10.084;2023-02-22T04:46:20;11.35;;;5.07;;
21681;SDS011;11002;48.256;10.084;2023-02-22T04:48:47;8.70;;;4.40;;
21681;SDS011;11002;48.256;10.084;2023-02-22T04:51:17;8.40;;;5.40;;
21681;SDS011;11002;48.256;10.084;2023-02-22T04:54:09;12.45;;;5.63;;
21681;SDS011;11002;48.256;10.084;2023-02-22T04:56:41;10.55;;;5.05;;
21681;SDS011;11002;48.256;10.084;2023-02-22T04:59:08;12.70;;;5.50;;
21681;SDS011;11002;48.256;10.084;2023-02-22T05:01:37;11.18;;;5.45;;
21681;SDS011;11002;48.256;10.084;2023-02-22T05:04:05;10.35;;;5.38;;
21681;SDS011;11002;48.256;10.084;2023-02-22T05:06:33;9.75;;;4.88;;
21681;SDS011;11002;48.256;10.084;2023-02-22T05:09:00;11.27;;;4.85;;
21681;SDS011;11002;48.256;10.084;2023-02-22T05:11:29;8.75;;;4.90;;
21681;SDS011;11002;48.256;10.084;2023-02-22T05:13:57;7.18;;;4.97;;
21681;SDS011;11002;48.256;10.084;2023-02-22T05:16:24;7.65;;;4.55;;
21681;SDS011;11002;48.256;10.084;2023-02-22T05:18:52;7.18;;;4.97;;
21681;SDS011;11002;48.256;10.084;2023-02-22T05:21:19;8.65;;;4.28;;
21681;SDS011;11002;48.256;10.084;2023-02-22T05:23:46;7.75;;;4.35;;
21681;SDS011;11002;48.256;10.084;2023-02-22T05:26:14;11.07;;;5.68;;
21681;SDS011;11002;48.256;10.084;2023-02-22T05:28:42;7.80;;;4.85;;
21681;SDS011;11002;48.256;10.084;2023-02-22T05:31:10;10.40;;;5.18;;
21681;SDS011;11002;48.256;10.084;2023-02-22T05:33:37;8.98;;;4.82;;
21681;SDS011;11002;48.256;10.084;2023-02-22T05:36:05;11.43;;;5.57;;
21681;SDS011;11002;48.256;10.084;2023-02-22T05:38:33;8.48;;;5.07;;
21681;SDS011;11002;48.256;10.084;2023-02-22T05:41:08;8.93;;;5.35;;
21681;SDS011;11002;48.256;10.084;2023-02-22T05:43:36;9.60;;;5.15;;
21681;SDS011;11002;48.256;10.084;2023-02-22T05:46:05;8.95;;;5.38;;
21681;SDS011;11002;48.256;10.084;2023-02-22T05:48:35;8.50;;;5.30;;
21681;SDS011;11002;48.256;10.084;2023-02-22T05:51:02;6.35;;;4.55;;
21681;SDS011;11002;48.256;10.084;2023-02-22T05:53:30;7.63;;;4.15;;
21681;SDS011;11002;48.256;10.084;2023-02-22T05:55:57;6.38;;;4.20;;
21681;SDS011;11002;48.256;10.084;2023-02-22T05:58:25;12.18;;;4.57;;
21681;SDS011;11002;48.256;10.084;2023-02-22T06:00:52;10.25;;;4.47;;
21681;SDS011;11002;48.256;10.084;2023-02-22T06:03:21;8.68;;;4.47;;
21681;SDS011;11002;48.256;10.084;2023-02-22T06:05:48;11.05;;;4.35;;
21681;SDS011;11002;48.256;10.084;2023-02-22T06:08:15;6.00;;;3.90;;
21681;SDS011;11002;48.256;10.084;2023-02-22T06:10:43;7.90;;;4.82;;
21681;SDS011;11002;48.256;10.084;2023-02-22T06:13:10;7.05;;;4.30;;
21681;SDS011;11002;48.256;10.084;2023-02-22T06:15:38;8.10;;;6.00;;
21681;SDS011;11002;48.256;10.084;2023-02-22T06:18:05;9.45;;;5.25;;
21681;SDS011;11002;48.256;10.084;2023-02-22T06:20:34;7.53;;;4.85;;
21681;SDS011;11002;48.256;10.084;2023-02-22T06:23:01;7.95;;;5.15;;
21681;SDS011;11002;48.256;10.084;2023-02-22T06:25:29;9.05;;;5.38;;
21681;SDS011;11002;48.256;10.084;2023-02-22T06:27:57;10.02;;;5.43;;
21681;SDS011;11002;48.256;10.084;2023-02-22T06:30:25;11.13;;;5.95;;
21681;SDS011;11002;48.256;10.084;2023-02-22T06:32:53;9.32;;;5.78;;
21681;SDS011;11002;48.256;10.084;2023-02-22T06:35:21;10.82;;;5.63;;
21681;SDS011;11002;48.256;10.084;2023-02-22T06:37:50;11.27;;;6.28;;
21681;SDS011;11002;48.256;10.084;2023-02-22T06:40:17;12.02;;;6.47;;
21681;SDS011;11002;48.256;10.084;2023-02-22T06:42:46;11.95;;;5.80;;
21681;SDS011;11002;48.256;10.084;2023-02-22T06:45:14;12.40;;;6.43;;
21681;SDS011;11002;48.256;10.084;2023-02-22T06:47:42;14.88;;;6.22;;
21681;SDS011;11002;48.256;10.084;2023-02-22T06:50:16;14.35;;;6.55;;
21681;SDS011;11002;48.256;10.084;2023-02-22T06:52:46;10.25;;;5.72;;
21681;SDS011;11002;48.256;10.084;2023-02-22T06:55:17;8.35;;;5.60;;
21681;SDS011;11002;48.256;10.084;2023-02-22T06:57:45;9.95;;;6.05;;
21681;SDS011;11002;48.256;10.084;2023-02-22T07:00:14;13.20;;;6.57;;
21681;SDS011;11002;48.256;10.084;2023-02-22T07:02:43;12.02;;;5.93;;
21681;SDS011;11002;48.256;10.084;2023-02-22T07:05:13;13.60;;;6.32;;
21681;SDS011;11002;48.256;10.084;2023-02-22T07:07:42;12.95;;;5.57;;
21681;SDS011;11002;48.256;10.084;2023-02-22T07:10:15;10.82;;;7.07;;
21681;SDS011;11002;48.256;10.084;2023-02-22T07:12:46;14.98;;;8.93;;
21681;SDS011;11002;48.256;10.084;2023-02-22T07:15:15;17.50;;;8.75;;
21681;SDS011;11002;48.256;10.084;2023-02-22T07:17:45;14.55;;;7.47;;
21681;SDS011;11002;48.256;10.084;2023-02-22T07:20:13;10.23;;;6.20;;
21681;SDS011;11002;48.256;10.084;2023-02-22T07:22:41;12.73;;;6.40;;
21681;SDS011;11002;48.256;10.084;2023-02-22T07:25:08;9.98;;;5.82;;
21681;SDS011;11002;48.256;10.084;2023-02-22T07:27:38;9.18;;;5.18;;
21681;SDS011;11002;48.256;10.084;2023-02-22T07:30:07;8.88;;;4.88;;
21681;SDS011;11002;48.256;10.084;2023-02-22T07:32:41;7.75;;;4.38;;
21681;SDS011;11002;48.256;10.084;2023-02-22T07:35:12;8.25;;;4.82;;
21681;SDS011;11002;48.256;10.084;2023-02-22T07:37:41;12.07;;;4.38;;
21681;SDS011;11002;48.256;10.084;2023-02-22T07:40:09;7.53;;;4.30;;
21681;SDS011;11002;48.256;10.084;2023-02-22T07:42:50;16.63;;;4.82;;
21681;SDS011;11002;48.256;10.084;2023-02-22T07:45:19;9.45;;;4.38;;
21681;SDS011;11002;48.256;10.084;2023-02-22T07:47:47;7.38;;;4.30;;
21681;SDS011;11002;48.256;10.084;2023-02-22T07:50:15;5.88;;;4.30;;
21681;SDS011;11002;48.256;10.084;2023-02-22T07:52:44;7.25;;;4.10;;
21681;SDS011;11002;48.256;10.084;2023-02-22T07:55:12;5.72;;;4.43;;
21681;SDS011;11002;48.256;10.084;2023-02-22T07:57:41;4.75;;;3.58;;
21681;SDS011;11002;48.256;10.084;2023-02-22T08:00:11;7.03;;;4.25;;
21681;SDS011;11002;48.256;10.084;2023-02-22T08:02:40;6.85;;;4.20;;
21681;SDS011;11002;48.256;10.084;2023-02-22T08:05:07;9.68;;;5.13;;
21681;SDS011;11002;48.256;10.084;2023-02-22T08:07:37;9.95;;;4.85;;
21681;SDS011;11002;48.256;10.084;2023-02-22T08:10:04;8.75;;;4.80;;
21681;SDS011;11002;48.256;10.084;2023-02-22T08:12:33;4.80;;;3.80;;
21681;SDS011;11002;48.256;10.084;2023-02-22T08:15:01;10.77;;;4.88;;
21681;SDS011;11002;48.256;10.084;2023-02-22T08:17:31;8.75;;;4.55;;
21681;SDS011;11002;48.256;10.084;2023-02-22T08:19:58;6.60;;;4.38;;
21681;SDS011;11002;48.256;10.084;2023-02-22T08:22:26;7.63;;;4.82;;
21681;SDS011;11002;48.256;10.084;2023-02-22T08:24:53;7.80;;;4.32;;
21681;SDS011;11002;48.256;10.084;2023-02-22T08:27:22;10.25;;;4.32;;
21681;SDS011;11002;48.256;10.084;2023-02-22T08:29:50;7.72;;;4.10;;
21681;SDS011;11002;48.256;10.084;2023-02-22T08:32:18;9.93;;;4.60;;
21681;SDS011;11002;48.256;10.084;2023-02-22T08:34:47;7.35;;;4.57;;
21681;SDS011;11002;48.256;10.084;2023-02-22T08:37:14;7.85;;;4.10;;
21681;SDS011;11002;48.256;10.084;2023-02-22T08:39:42;7.20;;;4.60;;
21681;SDS011;11002;48.256;10.084;2023-02-22T08:42:10;7.22;;;4.80;;
21681;SDS011;11002;48.256;10.084;2023-02-22T08:44:37;12.52;;;4.68;;
21681;SDS011;11002;48.256;10.084;2023-02-22T08:47:05;9.63;;;5.43;;
21681;SDS011;11002;48.256;10.084;2023-02-22T08:49:33;6.07;;;4.60;;
21681;SDS011;11002;48.256;10.084;2023-02-22T08:52:02;12.40;;;4.75;;
21681;SDS011;11002;48.256;10.084;2023-02-22T08:54:29;5.65;;;4.47;;
21681;SDS011;11002;48.256;10.084;2023-02-22T08:56:57;7.25;;;4.93;;
21681;SDS011;11002;48.256;10.084;2023-02-22T08:59:24;7.43;;;4.90;;
21681;SDS011;11002;48.256;10.084;2023-02-22T09:01:51;6.82;;;4.75;;
21681;SDS011;11002;48.256;10.084;2023-02-22T09:04:19;7.75;;;4.78;;
21681;SDS011;11002;48.256;10.084;2023-02-22T09:06:47;9.27;;;5.68;;
21681;SDS011;11002;48.256;10.084;2023-02-22T09:09:17;7.43;;;4.60;;
21681;SDS011;11002;48.256;10.084;2023-02-22T09:11:46;9.60;;;4.82;;
21681;SDS011;11002;48.256;10.084;2023-02-22T09:14:13;8.10;;;5.10;;
21681;SDS011;11002;48.256;10.084;2023-02-22T09:16:42;8.68;;;4.90;;
21681;SDS011;11002;48.256;10.084;2023-02-22T09:19:10;6.07;;;4.80;;
21681;SDS011;11002;48.256;10.084;2023-02-22T09:21:37;7.38;;;4.93;;
21681;SDS011;11002;48.256;10.084;2023-02-22T09:24:06;6.20;;;4.60;;
21681;SDS011;11002;48.256;10.084;2023-02-22T09:26:35;7.40;;;5.15;;
21681;SDS011;11002;48.256;10.084;2023-02-22T09:29:05;6.88;;;5.22;;
21681;SDS011;11002;48.256;10.084;2023-02-22T09:31:34;6.93;;;5.10;;
21681;SDS011;11002;48.256;10.084;2023-02-22T09:34:02;6.93;;;5.20;;
21681;SDS011;11002;48.256;10.084;2023-02-22T09:36:38;8.68;;;5.45;;
21681;SDS011;11002;48.256;10.084;2023-02-22T09:39:06;11.43;;;4.80;;
21681;SDS011;11002;48.256;10.084;2023-02-22T09:41:35;8.98;;;5.20;;
21681;SDS011;11002;48.256;10.084;2023-02-22T09:44:10;7.35;;;5.65;;
21681;SDS011;11002;48.256;10.084;2023-02-22T09:46:43;5.82;;;4.90;;
21681;SDS011;11002;48.256;10.084;2023-02-22T09:49:16;7.22;;;4.63;;
21681;SDS011;11002;48.256;10.084;2023-02-22T09:51:47;7.65;;;4.93;;
21681;SDS011;11002;48.256;10.084;2023-02-22T09:54:22;9.05;;;4.78;;
21681;SDS011;11002;48.256;10.084;2023-02-22T09:56:54;7.18;;;4.93;;
21681;SDS011;11002;48.256;10.084;2023-02-22T09:59:24;8.07;;;4.88;;
21681;SDS011;11002;48.256;10.084;2023-02-22T10:01:59;6.30;;;5.15;;
21681;SDS011;11002;48.256;10.084;2023-02-22T10:04:35;8.25;;;5.15;;
21681;SDS011;11002;48.256;10.084;2023-02-22T10:07:14;9.52;;;5.18;;
21681;SDS011;11002;48.256;10.084;2023-02-22T10:09:44;8.05;;;5.05;;
21681;SDS011;11002;48.256;10.084;2023-02-22T10:12:16;8.93;;;5.30;;
21681;SDS011;11002;48.256;10.084;2023-02-22T10:17:48;11.48;;;5.50;;
21681;SDS011;11002;48.256;10.084;2023-02-22T10:20:28;6.47;;;5.00;;
21681;SDS011;11002;48.256;10.084;2023-02-22T10:23:08;9.20;;;5.25;;
21681;SDS011;11002;48.256;10.084;2023-02-22T10:25:42;8.35;;;5.65;;
21681;SDS011;11002;48.256;10.084;2023-02-22T10:28:17;9.07;;;5.53;;
21681;SDS011;11002;48.256;10.084;2023-02-22T10:30:48;8.48;;;5.40;;
21681;SDS011;11002;48.256;10.084;2023-02-22T10:33:20;6.25;;;4.60;;
21681;SDS011;11002;48.256;10.084;2023-02-22T10:35:48;9.77;;;5.13;;
21681;SDS011;11002;48.256;10.084;2023-02-22T10:38:18;9.38;;;5.50;;
21681;SDS011;11002;48.256;10.084;2023-02-22T10:40:48;7.35;;;4.90;;
21681;SDS011;11002;48.256;10.084;2023-02-22T10:43:21;5.88;;;4.85;;
21681;SDS011;11002;48.256;10.084;2023-02-22T10:45:50;9.40;;;5.50;;
21681;SDS011;11002;48.256;10.084;2023-02-22T10:48:20;7.32;;;5.05;;
21681;SDS011;11002;48.256;10.084;2023-02-22T10:50:50;8.00;;;5.13;;
21681;SDS011;11002;48.256;10.084;2023-02-22T10:53:20;7.57;;;5.35;;
21681;SDS011;11002;48.256;10.084;2023-02-22T10:58:42;7.80;;;5.40;;
21681;SDS011;11002;48.256;10.084;2023-02-22T11:01:19;7.25;;;5.75;;
21681;SDS011;11002;48.256;10.084;2023-02-22T11:03:58;9.30;;;6.03;;
21681;SDS011;11002;48.256;10.084;2023-02-22T11:06:29;11.10;;;6.38;;
21681;SDS011;11002;48.256;10.084;2023-02-22T11:09:03;12.90;;;6.53;;
21681;SDS011;11002;48.256;10.084;2023-02-22T11:11:36;8.88;;;5.93;;
21681;SDS011;11002;48.256;10.084;2023-02-22T11:14:06;12.07;;;6.47;;
21681;SDS011;11002;48.256;10.084;2023-02-22T11:16:36;9.20;;;5.72;;
21681;SDS011;11002;48.256;10.084;2023-02-22T11:19:10;12.18;;;6.00;;
21681;SDS011;11002;48.256;10.084;2023-02-22T11:21:45;9.07;;;5.93;;
21681;SDS011;11002;48.256;10.084;2023-02-22T11:24:15;8.20;;;5.38;;
21681;SDS011;11002;48.256;10.084;2023-02-22T11:26:46;9.55;;;6.18;;
21681;SDS011;11002;48.256;10.084;2023-02-22T11:29:19;7.65;;;5.35;;
21681;SDS011;11002;48.256;10.084;2023-02-22T11:31:50;9.38;;;5.82;;
21681;SDS011;11002;48.256;10.084;2023-02-22T11:34:27;7.78;;;6.05;;
21681;SDS011;11002;48.256;10.084;2023-02-22T11:39:46;10.45;;;6.97;;
21681;SDS011;11002;48.256;10.084;2023-02-22T11:42:22;9.30;;;6.70;;
21681;SDS011;11002;48.256;10.084;2023-02-22T11:47:49;11.40;;;6.75;;
21681;SDS011;11002;48.256;10.084;2023-02-22T11:50:24;12.30;;;7.20;;
21681;SDS011;11002;48.256;10.084;2023-02-22T11:52:57;10.77;;;7.30;;
21681;SDS011;11002;48.256;10.084;2023-02-22T11:55:35;14.18;;;8.27;;
21681;SDS011;11002;48.256;10.084;2023-02-22T11:58:17;13.02;;;8.32;;
21681;SDS011;11002;48.256;10.084;2023-02-22T12:00:56;14.32;;;8.57;;
21681;SDS011;11002;48.256;10.084;2023-02-22T12:03:36;12.73;;;8.00;;
21681;SDS011;11002;48.256;10.084;2023-02-22T12:06:16;16.80;;;9.40;;
21681;SDS011;11002;48.256;10.084;2023-02-22T12:08:55;13.02;;;9.25;;
21681;SDS011;11002;48.256;10.084;2023-02-22T12:11:31;15.32;;;9.50;;
21681;SDS011;11002;48.256;10.084;2023-02-22T12:14:11;13.32;;;9.27;;
21681;SDS011;11002;48.256;10.084;2023-02-22T12:19:49;14.43;;;10.18;;
21681;SDS011;11002;48.256;10.084;2023-02-22T12:22:21;16.65;;;9.82;;
21681;SDS011;11002;48.256;10.084;2023-02-22T12:24:55;15.65;;;10.40;;
21681;SDS011;11002;48.256;10.084;2023-02-22T12:27:27;13.68;;;10.32;;
21681;SDS011;11002;48.256;10.084;2023-02-22T12:29:59;13.63;;;10.65;;
21681;SDS011;11002;48.256;10.084;2023-02-22T12:32:33;12.10;;;10.10;;
21681;SDS011;11002;48.256;10.084;2023-02-22T12:35:10;17.17;;;11.03;;
21681;SDS011;11002;48.256;10.084;2023-02-22T12:37:47;14.10;;;10.73;;
21681;SDS011;11002;48.256;10.084;2023-02-22T12:40:23;15.95;;;9.98;;
21681;SDS011;11002;48.256;10.084;2023-02-22T12:42:57;15.27;;;10.05;;
21681;SDS011;11002;48.256;10.084;2023-02-22T12:45:33;13.82;;;9.70;;
21681;SDS011;11002;48.256;10.084;2023-02-22T12:48:07;13.30;;;9.70;;
21681;SDS011;11002;48.256;10.084;2023-02-22T12:50:49;18.17;;;10.50;;
21681;SDS011;11002;48.256;10.084;2023-02-22T12:53:22;12.93;;;9.63;;
21681;SDS011;11002;48.256;10.084;2023-02-22T12:55:54;14.43;;;9.18;;
21681;SDS011;11002;48.256;10.084;2023-02-22T12:58:29;14.43;;;9.50;;
21681;SDS011;11002;48.256;10.084;2023-02-22T13:01:04;13.63;;;8.68;;
21681;SDS011;11002;48.256;10.084;2023-02-22T13:03:38;14.60;;;9.80;;
21681;SDS011;11002;48.256;10.084;2023-02-22T13:06:12;13.32;;;10.15;;
21681;SDS011;11002;48.256;10.084;2023-02-22T13:09:06;13.80;;;9.43;;
21681;SDS011;11002;48.256;10.084;2023-02-22T13:11:48;15.57;;;9.82;;
21681;SDS011;11002;48.256;10.084;2023-02-22T13:14:33;14.15;;;9.88;;
21681;SDS011;11002;48.256;10.084;2023-02-22T13:17:08;12.82;;;8.95;;
21681;SDS011;11002;48.256;10.084;2023-02-22T13:19:47;14.60;;;9.68;;
21681;SDS011;11002;48.256;10.084;2023-02-22T13:22:25;15.45;;;9.75;;
21681;SDS011;11002;48.256;10.084;2023-02-22T13:25:00;17.08;;;9.45;;
21681;SDS011;11002;48.256;10.084;2023-02-22T13:27:34;13.25;;;9.90;;
21681;SDS011;11002;48.256;10.084;2023-02-22T13:30:15;14.50;;;9.35;;
21681;SDS011;11002;48.256;10.084;2023-02-22T13:32:51;13.98;;;9.85;;
21681;SDS011;11002;48.256;10.084;2023-02-22T13:35:42;14.63;;;10.15;;
21681;SDS011;11002;48.256;10.084;2023-02-22T13:38:28;13.32;;;9.80;;
21681;SDS011;11002;48.256;10.084;2023-02-22T13:44:13;17.88;;;9.93;;
21681;SDS011;11002;48.256;10.084;2023-02-22T13:50:03;12.85;;;9.35;;
21681;SDS011;11002;48.256;10.084;2023-02-22T13:52:48;16.23;;;9.93;;
21681;SDS011;11002;48.256;10.084;2023-02-22T13:55:19;15.95;;;10.00;;
21681;SDS011;11002;48.256;10.084;2023-02-22T13:57:54;13.73;;;9.85;;
21681;SDS011;11002;48.256;10.084;2023-02-22T14:00:42;16.48;;;10.05;;
21681;SDS011;11002;48.256;10.084;2023-02-22T14:06:01;14.52;;;9.43;;
21681;SDS011;11002;48.256;10.084;2023-02-22T14:08:40;15.10;;;9.68;;
21681;SDS011;11002;48.256;10.084;2023-02-22T14:14:22;17.40;;;10.05;;
21681;SDS011;11002;48.256;10.084;2023-02-22T14:22:57;13.20;;;10.05;;
21681;SDS011;11002;48.256;10.084;2023-02-22T14:25:53;13.75;;;10.70;;
21681;SDS011;11002;48.256;10.084;2023-02-22T14:31:22;15.10;;;10.43;;
21681;SDS011;11002;48.256;10.084;2023-02-22T14:36:39;13.65;;;10.27;;
21681;SDS011;11002;48.256;10.084;2023-02-22T14:39:13;12.80;;;9.65;;
21681;SDS011;11002;48.256;10.084;2023-02-22T14:41:47;13.15;;;10.13;;
21681;SDS011;11002;48.256;10.084;2023-02-22T14:44:20;15.07;;;10.75;;
21681;SDS011;11002;48.256;10.084;2023-02-22T14:46:53;18.30;;;11.20;;
21681;SDS011;11002;48.256;10.084;2023-02-22T14:49:26;17.08;;;10.60;;
21681;SDS011;11002;48.256;10.084;2023-02-22T14:52:01;15.77;;;11.33;;
21681;SDS011;11002;48.256;10.084;2023-02-22T14:54:34;18.27;;;11.10;;
21681;SDS011;11002;48.256;10.084;2023-02-22T14:57:16;16.75;;;10.48;;
21681;SDS011;11002;48.256;10.084;2023-02-22T14:59:57;14.75;;;10.25;;
21681;SDS011;11002;48.256;10.084;2023-02-22T15:02:46;20.73;;;10.93;;
21681;SDS011;11002;48.256;10.084;2023-02-22T15:05:14;13.48;;;10.80;;
21681;SDS011;11002;48.256;10.084;2023-02-22T15:07:51;16.20;;;10.75;;
21681;SDS011;11002;48.256;10.084;2023-02-22T15:10:22;18.17;;;11.52;;
21681;SDS011;11002;48.256;10.084;2023-02-22T15:12:57;23.58;;;12.27;;
21681;SDS011;11002;48.256;10.084;2023-02-22T15:15:36;15.75;;;10.77;;
21681;SDS011;11002;48.256;10.084;2023-02-22T15:18:11;17.70;;;11.80;;
21681;SDS011;11002;48.256;10.084;2023-02-22T15:20:44;22.00;;;11.93;;
21681;SDS011;11002;48.256;10.084;2023-02-22T15:23:20;18.63;;;12.23;;
21681;SDS011;11002;48.256;10.084;2023-02-22T15:25:50;18.80;;;12.20;;
21681;SDS011;11002;48.256;10.084;2023-02-22T15:28:17;17.23;;;11.90;;
21681;SDS011;11002;48.256;10.084;2023-02-22T15:30:44;16.25;;;10.70;;
21681;SDS011;11002;48.256;10.084;2023-02-22T15:33:14;16.55;;;11.70;;
21681;SDS011;11002;48.256;10.084;2023-02-22T15:35:52;16.80;;;11.93;;